CPX965 Details

Departure: Liège Airport (EBLG)
Arrival: Ramstein Air Force Base (ETAR) at N/A
Route: LAREP UN852 DIK
Notes: EMPTY | NON-REVENUE REPOSITIONING LEG


Current Weather Information
EBLG 230720Z 04004KT CAVOK 11/10 Q1017 NOSIG
ETAR 230726Z 07004KT 9000 BR OVC005 11/11 A3002 RMK AO2A SLP172 $